Time;durP1;ratioP1;P1;durP2;ratioP2;P2;SDS_P1;SDS_P2;PMS_P1;PMS_P2;Temp;Humidity;BMP_temperature;BMP_pressure;BME280_temperature;BME280_humidity;BME280_pressure;Samples;Min_cycle;Max_cycle;Signal;HPM_P1;HPM_P2
2024/04/13 05:40:29;;;;;;;15.20;3.78;;;;;;;;;;2268755;25;20590;-62
2024/04/13 06:47:05;;;;;;;7.00;2.85;;;;;;;;;;2259336;25;20563;-61
2024/04/13 06:49:19;;;;;;;6.82;3.33;;;;;;;;;;2223923;26;20573;-61
2024/04/13 06:51:32;;;;;;;10.38;2.70;;;;;;;12.88;71.50;97821.94;2221085;25;20897;-61
2024/04/13 06:53:39;;;;;;;16.55;2.72;;;;;;;12.96;71.67;97821.69;2223049;26;20621;-61
2024/04/13 06:54:41;;;;;;;7.72;2.90;;;;;;;13.00;70.72;97823.28;2216585;26;20272;-61
2024/04/13 06:56:48;;;;;;;6.50;3.25;;;;;;;-145.49;100.00;55703.94;2236916;26;20562;-63
2024/04/13 06:57:50;;;;;;;6.88;3.25;;;;;;;13.36;69.74;97825.47;2235243;26;20758;-63
2024/04/13 06:58:52;;;;;;;4.80;3.03;;;;;;;13.54;69.28;97824.81;2228623;26;20222;-64
2024/04/13 06:59:54;;;;;;;6.88;2.88;;;;;;;13.66;68.95;97826.13;2236441;26;20277;-64
2024/04/13 07:00:59;;;;;;;12.52;3.40;;;;;;;13.88;69.02;97826.13;2226540;26;20331;-64
2024/04/13 07:02:01;;;;;;;6.95;3.20;;;;;;;14.06;68.22;97826.31;2219178;26;20229;-64
2024/04/13 07:03:03;;;;;;;9.23;2.72;;;;;;;14.10;68.79;97827.06;2203531;26;20220;-63
2024/04/13 07:04:05;;;;;;;5.03;2.80;;;;;;;14.16;67.86;97826.81;2206223;26;20348;-64
2024/04/13 07:05:07;;;;;;;10.15;3.20;;;;;;;14.29;67.44;97828.00;2219775;26;20216;-64
2024/04/13 07:06:09;;;;;;;5.47;2.65;;;;;;;14.21;68.07;97828.31;2220169;26;20260;-64
2024/04/13 07:07:10;;;;;;;13.90;2.85;;;;;;;14.42;68.01;97825.72;2218077;26;20576;-64
2024/04/13 07:08:12;;;;;;;7.78;4.05;;;;;;;14.68;67.12;97824.69;2215590;26;20219;-64
2024/04/13 07:09:13;;;;;;;21.05;4.57;;;;;;;-145.49;100.00;55703.94;2215615;26;20557;-64
2024/04/13 07:10:15;;;;;;;6.20;2.50;;;;;;;-145.49;100.00;55703.94;2216180;26;20220;-64
2024/04/13 07:11:17;;;;;;;10.50;3.22;;;;;;;-145.49;100.00;55703.94;2222825;26;20250;-64
2024/04/13 07:12:18;;;;;;;11.20;2.92;;;;;;;-145.49;100.00;55703.94;2216446;26;20661;-64
2024/04/13 07:13:20;;;;;;;12.05;2.80;;;;;;;15.18;65.83;97827.81;2211847;26;20208;-64
2024/04/13 07:14:22;;;;;;;10.93;2.30;;;;;;;15.37;65.90;97825.19;2210735;26;20223;-64
2024/04/13 07:15:23;;;;;;;6.70;2.10;;;;;;;15.62;65.20;97819.66;2210759;26;20216;-64
2024/04/13 07:16:25;;;;;;;5.50;2.63;;;;;;;15.68;64.95;97818.53;2217703;26;20684;-64
2024/04/13 07:17:26;;;;;;;6.47;3.40;;;;;;;15.68;64.95;97818.53;2219512;26;20253;-62
2024/04/13 07:18:28;;;;;;;9.95;3.03;;;;;;;15.95;64.58;97824.28;2216348;26;20243;-63
2024/04/13 07:19:29;;;;;;;12.43;2.50;;;;;;;-145.49;100.00;55703.94;2219242;26;20255;-62
2024/04/13 07:20:31;;;;;;;9.90;2.83;;;;;;;-145.49;100.00;55703.94;2214667;26;20215;-62
2024/04/13 07:21:33;;;;;;;8.73;2.40;;;;;;;-145.49;100.00;55703.94;2212545;26;20295;-62
2024/04/13 07:22:34;;;;;;;5.65;2.30;;;;;;;-145.49;100.00;55703.94;2211966;26;20275;-63
2024/04/13 07:23:36;;;;;;;9.65;2.40;;;;;;;-145.49;100.00;55703.94;2212694;26;20251;-62
2024/04/13 07:24:38;;;;;;;10.50;2.53;;;;;;;-145.49;100.00;55703.94;2213999;26;20339;-62
2024/04/13 07:25:40;;;;;;;9.05;2.33;;;;;;;-145.49;100.00;55703.94;2217573;26;20262;-62
2024/04/13 07:26:41;;;;;;;5.32;2.30;;;;;;;-145.49;100.00;55703.94;2217866;26;21003;-63
2024/04/13 07:27:43;;;;;;;4.85;2.20;;;;;;;-145.49;100.00;55703.94;2218168;26;20215;-65
2024/04/13 07:28:44;;;;;;;8.27;2.83;;;;;;;-145.49;100.00;55703.94;2217282;26;20213;-62
2024/04/13 07:29:46;;;;;;;7.32;2.42;;;;;;;-145.49;100.00;55703.94;2215722;26;20294;-62
2024/04/13 07:30:48;;;;;;;8.48;2.35;;;;;;;-145.49;100.00;55703.94;2214126;26;20223;-63
2024/04/13 07:31:49;;;;;;;6.28;2.50;;;;;;;-145.49;100.00;55703.94;2217542;26;20227;-63
2024/04/13 07:32:51;;;;;;;7.00;2.95;;;;;;;-145.49;100.00;55703.94;2217477;26;20226;-63
2024/04/13 07:33:52;;;;;;;7.10;2.30;;;;;;;-145.49;100.00;55703.94;2221090;26;20260;-62
2024/04/13 07:34:54;;;;;;;14.77;2.50;;;;;;;-145.49;100.00;55703.94;2213423;26;20623;-62
2024/04/13 07:35:56;;;;;;;14.32;2.20;;;;;;;-145.49;100.00;55703.94;2219094;26;20292;-65
2024/04/13 07:36:58;;;;;;;5.47;2.20;;;;;;;-145.49;100.00;55703.94;2219551;26;20266;-63
2024/04/13 07:38:00;;;;;;;11.63;3.10;;;;;;;-145.49;100.00;55703.94;2217646;26;20262;-63
2024/04/13 07:39:01;;;;;;;7.45;2.42;;;;;;;-145.49;100.00;55703.94;2219653;26;20258;-63
2024/04/13 07:40:03;;;;;;;10.57;2.75;;;;;;;-145.49;100.00;55703.94;2212543;26;20212;-63
2024/04/13 07:41:05;;;;;;;11.85;2.90;;;;;;;-145.49;100.00;55703.94;2214471;26;20250;-63
2024/04/13 07:42:07;;;;;;;9.40;2.60;;;;;;;-145.49;100.00;55703.94;2219838;26;20220;-64
2024/04/13 07:43:09;;;;;;;15.15;2.38;;;;;;;-145.49;100.00;55703.94;2221461;26;20257;-65
2024/04/13 07:44:10;;;;;;;6.60;2.40;;;;;;;-145.49;100.00;55703.94;2220893;26;20262;-64
2024/04/13 07:45:12;;;;;;;4.85;2.40;;;;;;;-145.49;100.00;55703.94;2212163;26;20336;-65
2024/04/13 07:46:14;;;;;;;5.53;2.20;;;;;;;-145.49;100.00;55703.94;2211227;26;20248;-64
2024/04/13 07:47:15;;;;;;;6.45;1.98;;;;;;;-145.49;100.00;55703.94;2212928;26;20257;-65
2024/04/13 07:48:17;;;;;;;5.15;2.00;;;;;;;-145.49;100.00;55703.94;2209783;26;20229;-65
2024/04/13 07:49:22;;;;;;;8.27;2.22;;;;;;;-145.49;100.00;55703.94;2210286;26;20262;-65
2024/04/13 07:50:23;;;;;;;16.83;3.03;;;;;;;-145.49;100.00;55703.94;2219696;26;20556;-64
2024/04/13 07:51:25;;;;;;;10.98;2.45;;;;;;;-145.49;100.00;55703.94;2212491;26;20736;-65
2024/04/13 07:52:27;;;;;;;12.10;3.08;;;;;;;-145.49;100.00;55703.94;2216576;26;20318;-64
2024/04/13 07:53:30;;;;;;;6.38;2.50;;;;;;;-145.49;100.00;55703.94;2213224;26;20929;-63
2024/04/13 07:54:32;;;;;;;10.35;2.58;;;;;;;-145.49;100.00;55703.94;2212859;26;20518;-67
2024/04/13 07:55:34;;;;;;;10.13;2.40;;;;;;;-145.49;100.00;55703.94;2216672;26;20746;-65
2024/04/13 07:56:36;;;;;;;7.78;2.75;;;;;;;-145.49;100.00;55703.94;2216076;26;20804;-65
2024/04/13 07:57:37;;;;;;;15.25;3.45;;;;;;;-145.49;100.00;55703.94;2215373;26;20217;-65
2024/04/13 07:58:40;;;;;;;7.07;2.55;;;;;;;-145.49;100.00;55703.94;2227413;26;20330;-64
2024/04/13 07:59:42;;;;;;;9.07;2.75;;;;;;;-145.49;100.00;55703.94;2218575;26;20225;-65
2024/04/13 08:00:44;;;;;;;15.23;2.17;;;;;;;-145.49;100.00;55703.94;2212300;26;20215;-64
2024/04/13 08:01:45;;;;;;;5.53;2.10;;;;;;;-145.49;100.00;55703.94;2209549;26;20223;-65
2024/04/13 08:02:47;;;;;;;5.90;2.15;;;;;;;-145.49;100.00;55703.94;2208233;26;20224;-65
2024/04/13 08:03:48;;;;;;;3.85;1.85;;;;;;;-145.49;100.00;55703.94;2207850;26;20281;-65
2024/04/13 08:04:50;;;;;;;11.10;2.38;;;;;;;-145.49;100.00;55703.94;2215045;26;20254;-65
2024/04/13 08:05:52;;;;;;;6.53;2.25;;;;;;;-145.49;100.00;55703.94;2211680;26;20225;-65
2024/04/13 08:06:54;;;;;;;5.80;2.35;;;;;;;-145.49;100.00;55703.94;2213180;26;20221;-65
2024/04/13 08:07:55;;;;;;;4.68;2.25;;;;;;;-145.49;100.00;55703.94;2207801;26;20712;-65
2024/04/13 08:08:57;;;;;;;4.53;1.60;;;;;;;-145.49;100.00;55703.94;2211962;26;20373;-65
2024/04/13 08:09:58;;;;;;;4.68;2.00;;;;;;;-145.49;100.00;55703.94;2212885;26;20268;-65
2024/04/13 08:11:00;;;;;;;3.42;1.73;;;;;;;-145.49;100.00;55703.94;2212604;26;20248;-65
2024/04/13 08:12:02;;;;;;;19.75;2.40;;;;;;;-145.49;100.00;55703.94;2213729;26;20310;-65
2024/04/13 08:13:03;;;;;;;9.32;2.22;;;;;;;-145.49;100.00;55703.94;2212895;26;20259;-65
2024/04/13 08:14:07;;;;;;;9.05;2.30;;;;;;;-145.49;100.00;55703.94;2211276;26;20271;-65
2024/04/13 08:15:10;;;;;;;7.85;2.78;;;;;;;-145.49;100.00;55703.94;2210277;26;20221;-65
2024/04/13 08:16:12;;;;;;;5.88;2.90;;;;;;;-145.49;100.00;55703.94;2205416;26;20252;-65
2024/04/13 08:17:14;;;;;;;8.50;2.80;;;;;;;-145.49;100.00;55703.94;2210025;26;20835;-63
2024/04/13 08:18:16;;;;;;;7.90;2.47;;;;;;;-145.49;100.00;55703.94;2213032;26;20267;-63
2024/04/13 08:19:17;;;;;;;6.20;1.80;;;;;;;-145.49;100.00;55703.94;2211161;26;20715;-63
2024/04/13 08:20:19;;;;;;;8.00;2.03;;;;;;;-145.49;100.00;55703.94;2209759;26;20216;-63
2024/04/13 08:21:20;;;;;;;5.85;1.95;;;;;;;-145.49;100.00;55703.94;2210794;26;20251;-64
2024/04/13 08:22:22;;;;;;;8.98;2.10;;;;;;;-145.49;100.00;55703.94;2205983;26;20216;-65
2024/04/13 08:23:24;;;;;;;8.35;2.17;;;;;;;-145.49;100.00;55703.94;2204370;26;20714;-65
2024/04/13 08:24:25;;;;;;;5.95;2.25;;;;;;;-145.49;100.00;55703.94;2196177;26;20225;-65
2024/04/13 08:25:28;;;;;;;12.73;2.50;;;;;;;-145.49;100.00;55703.94;2201337;26;20494;-65
2024/04/13 08:26:30;;;;;;;6.82;2.65;;;;;;;-145.49;100.00;55703.94;2215528;26;20286;-64
2024/04/13 08:27:33;;;;;;;7.03;2.10;;;;;;;-145.49;100.00;55703.94;2219549;26;20243;-64
2024/04/13 08:28:35;;;;;;;7.72;2.25;;;;;;;-145.49;100.00;55703.94;2217057;26;20263;-64
2024/04/13 08:29:37;;;;;;;8.05;2.70;;;;;;;-145.49;100.00;55703.94;2217224;26;20212;-64
2024/04/13 08:30:38;;;;;;;8.45;2.22;;;;;;;-145.49;100.00;55703.94;2208608;26;20275;-64
2024/04/13 08:31:40;;;;;;;9.02;2.20;;;;;;;-145.49;100.00;55703.94;2215069;26;20209;-64
2024/04/13 08:32:45;;;;;;;7.95;2.45;;;;;;;-145.49;100.00;55703.94;2214042;26;20220;-64
2024/04/13 08:33:46;;;;;;;6.30;2.20;;;;;;;-145.49;100.00;55703.94;2209101;26;20223;-64
2024/04/13 08:34:51;;;;;;;6.65;2.00;;;;;;;-145.49;100.00;55703.94;2207254;26;20267;-64
2024/04/13 08:36:04;;;;;;;9.77;2.22;;;;;;;-145.49;100.00;55703.94;2204497;26;20214;-64
2024/04/13 08:37:06;;;;;;;9.20;1.70;;;;;;;-145.49;100.00;55703.94;2205948;26;20224;-65
2024/04/13 08:38:09;;;;;;;11.18;2.40;;;;;;;-145.49;100.00;55703.94;2210446;26;20271;-65
2024/04/13 08:39:14;;;;;;;7.63;3.38;;;;;;;-145.49;100.00;55703.94;2206723;26;20780;-65
2024/04/13 08:40:15;;;;;;;7.30;2.20;;;;;;;-145.49;100.00;55703.94;2203926;26;20343;-65
2024/04/13 08:41:37;;;;;;;7.18;1.67;;;;;;;-145.49;100.00;55703.94;2202241;26;20323;-65
2024/04/13 08:42:43;;;;;;;5.80;1.90;;;;;;;-145.49;100.00;55703.94;2207714;26;20337;-65
2024/04/13 08:43:45;;;;;;;5.63;2.22;;;;;;;-145.49;100.00;55703.94;2207819;26;20220;-65
2024/04/13 08:44:52;;;;;;;5.75;1.33;;;;;;;-145.49;100.00;55703.94;2211149;26;20565;-65
2024/04/13 08:45:55;;;;;;;8.43;1.90;;;;;;;-145.49;100.00;55703.94;2207602;26;20212;-65
2024/04/13 08:47:01;;;;;;;5.32;1.85;;;;;;;-145.49;100.00;55703.94;2195885;26;20221;-65
2024/04/13 08:48:03;;;;;;;7.10;1.63;;;;;;;-145.49;100.00;55703.94;2196122;26;20316;-65
2024/04/13 08:49:06;;;;;;;6.82;1.80;;;;;;;-145.49;100.00;55703.94;2209825;26;20321;-65
2024/04/13 08:50:08;;;;;;;5.50;2.00;;;;;;;-145.49;100.00;55703.94;2203543;26;20532;-65
2024/04/13 08:51:13;;;;;;;7.82;1.50;;;;;;;-145.49;100.00;55703.94;2206658;26;20567;-63
2024/04/13 08:52:17;;;;;;;8.55;1.63;;;;;;;-145.49;100.00;55703.94;2211064;26;20212;-63
2024/04/13 08:53:22;;;;;;;5.55;1.50;;;;;;;-145.49;100.00;55703.94;2213838;26;20262;-65
2024/04/13 08:54:23;;;;;;;5.78;1.75;;;;;;;-145.49;100.00;55703.94;2218945;26;20311;-64
2024/04/13 08:55:27;;;;;;;10.90;1.63;;;;;;;-145.49;100.00;55703.94;2204505;26;20362;-64
2024/04/13 08:56:29;;;;;;;3.58;1.27;;;;;;;-145.49;100.00;55703.94;2211785;26;20252;-62
2024/04/13 08:57:33;;;;;;;4.35;1.63;;;;;;;-145.49;100.00;55703.94;2213845;26;20227;-63
2024/04/13 08:58:38;;;;;;;11.32;1.65;;;;;;;-145.49;100.00;55703.94;2209249;26;20872;-63
2024/04/13 08:59:40;;;;;;;5.53;1.70;;;;;;;-145.49;100.00;55703.94;2214261;26;20867;-63
2024/04/13 09:00:48;;;;;;;5.90;2.03;;;;;;;-145.49;100.00;55703.94;2211052;26;20216;-64
2024/04/13 09:01:51;;;;;;;5.25;1.58;;;;;;;-145.49;100.00;55703.94;2209016;26;20223;-66
2024/04/13 09:02:55;;;;;;;4.22;2.08;;;;;;;-145.49;100.00;55703.94;2215167;26;20348;-64
2024/04/13 09:03:57;;;;;;;3.50;1.48;;;;;;;-145.49;100.00;55703.94;2208998;26;20646;-63
2024/04/13 09:05:02;;;;;;;3.10;1.50;;;;;;;-145.49;100.00;55703.94;2211250;26;20255;-63
2024/04/13 09:06:04;;;;;;;3.53;1.40;;;;;;;-145.49;100.00;55703.94;2210189;26;20251;-66
2024/04/13 09:07:07;;;;;;;9.07;1.95;;;;;;;-145.49;100.00;55703.94;2214820;26;20219;-66
2024/04/13 09:08:10;;;;;;;4.97;1.55;;;;;;;-145.49;100.00;55703.94;2205807;26;20756;-66
2024/04/13 09:09:13;;;;;;;5.65;1.98;;;;;;;-145.49;100.00;55703.94;2204964;26;20220;-66
2024/04/13 09:10:15;;;;;;;7.60;1.70;;;;;;;-145.49;100.00;55703.94;2204371;26;20665;-65
2024/04/13 09:11:22;;;;;;;9.35;1.30;;;;;;;-145.49;100.00;55703.94;2213899;26;20273;-66
2024/04/13 09:12:24;;;;;;;5.30;1.60;;;;;;;-145.49;100.00;55703.94;2214264;26;20215;-66
2024/04/13 09:13:26;;;;;;;3.85;1.60;;;;;;;-145.49;100.00;55703.94;2210259;26;20327;-64
2024/04/13 09:14:28;;;;;;;12.07;1.90;;;;;;;-145.49;100.00;55703.94;2208836;26;20263;-64
2024/04/13 09:15:30;;;;;;;4.05;1.30;;;;;;;-145.49;100.00;55703.94;2204042;26;20282;-64
2024/04/13 09:16:33;;;;;;;4.18;1.60;;;;;;;-145.49;100.00;55703.94;2209747;26;20337;-66
2024/04/13 09:17:35;;;;;;;4.95;1.52;;;;;;;-145.49;100.00;55703.94;2212864;26;20215;-66
2024/04/13 09:18:40;;;;;;;5.57;1.73;;;;;;;-145.49;100.00;55703.94;2209663;26;20670;-66
2024/04/13 09:19:44;;;;;;;7.30;2.28;;;;;;;-145.49;100.00;55703.94;2207862;26;20264;-66
2024/04/13 09:20:46;;;;;;;6.05;1.85;;;;;;;-145.49;100.00;55703.94;2208164;26;20280;-66
2024/04/13 09:21:48;;;;;;;4.28;1.50;;;;;;;-145.49;100.00;55703.94;2208177;26;20212;-66
2024/04/13 09:22:51;;;;;;;3.75;1.30;;;;;;;-145.49;100.00;55703.94;2211472;26;20844;-66
2024/04/13 09:23:54;;;;;;;3.13;1.38;;;;;;;-145.49;100.00;55703.94;2212738;26;20319;-66
2024/04/13 09:24:56;;;;;;;5.07;1.48;;;;;;;-145.49;100.00;55703.94;2210381;26;20321;-66
2024/04/13 09:26:04;;;;;;;3.85;1.50;;;;;;;-145.49;100.00;55703.94;2205931;26;20219;-66
2024/04/13 09:27:14;;;;;;;4.28;1.80;;;;;;;-145.49;100.00;55703.94;2204939;26;20256;-67
2024/04/13 09:28:16;;;;;;;3.72;1.42;;;;;;;-145.49;100.00;55703.94;2216763;26;20216;-67
2024/04/13 09:29:25;;;;;;;5.15;1.70;;;;;;;-145.49;100.00;55703.94;2210199;26;20761;-65
2024/04/13 09:30:26;;;;;;;7.00;1.80;;;;;;;-145.49;100.00;55703.94;2205310;26;20332;-65
2024/04/13 09:31:28;;;;;;;5.22;1.35;;;;;;;-145.49;100.00;55703.94;2215125;26;20257;-65
2024/04/13 09:32:30;;;;;;;4.38;1.60;;;;;;;-145.49;100.00;55703.94;2215144;26;20213;-64
2024/04/13 09:33:32;;;;;;;4.85;1.73;;;;;;;-145.49;100.00;55703.94;2216755;26;20215;-64
2024/04/13 09:34:35;;;;;;;3.10;1.50;;;;;;;-145.49;100.00;55703.94;2216419;26;20286;-64
2024/04/13 09:35:36;;;;;;;7.93;1.63;;;;;;;-145.49;100.00;55703.94;2217020;26;20254;-63
2024/04/13 09:36:38;;;;;;;6.18;1.98;;;;;;;-145.49;100.00;55703.94;2214126;26;20256;-64
2024/04/13 09:37:40;;;;;;;7.55;1.30;;;;;;;-145.49;100.00;55703.94;2213072;26;20221;-63
2024/04/13 09:38:45;;;;;;;8.38;1.50;;;;;;;-145.49;100.00;55703.94;2208612;26;20216;-66
2024/04/13 09:39:46;;;;;;;7.60;1.60;;;;;;;-145.49;100.00;55703.94;2214571;26;20213;-66
2024/04/13 09:40:48;;;;;;;4.53;1.73;;;;;;;-145.49;100.00;55703.94;2206489;26;20211;-66
2024/04/13 09:41:49;;;;;;;4.50;1.20;;;;;;;-145.49;100.00;55703.94;2204695;26;20262;-66
2024/04/13 09:42:52;;;;;;;4.45;1.35;;;;;;;-145.49;100.00;55703.94;2218791;26;20215;-66
2024/04/13 09:43:56;;;;;;;7.82;2.22;;;;;;;-145.49;100.00;55703.94;2228843;26;20218;-66
2024/04/13 09:45:11;;;;;;;5.25;1.95;;;;;;;-145.49;100.00;55703.94;2215690;26;21037;-66
2024/04/13 09:46:13;;;;;;;4.20;1.35;;;;;;;-145.49;100.00;55703.94;2213423;26;20244;-66
2024/04/13 09:47:14;;;;;;;5.60;1.70;;;;;;;-145.49;100.00;55703.94;2212927;26;20236;-65
2024/04/13 09:48:16;;;;;;;4.95;1.70;;;;;;;-145.49;100.00;55703.94;2209278;26;20218;-65
2024/04/13 09:49:17;;;;;;;6.18;1.75;;;;;;;-145.49;100.00;55703.94;2210865;26;20212;-65
2024/04/13 09:50:19;;;;;;;3.67;1.83;;;;;;;-145.49;100.00;55703.94;2211437;26;20216;-65
2024/04/13 09:51:20;;;;;;;3.08;1.60;;;;;;;-145.49;100.00;55703.94;2208823;26;20291;-65
2024/04/13 09:52:23;;;;;;;4.50;1.50;;;;;;;-145.49;100.00;55703.94;2211633;26;20220;-65
2024/04/13 09:53:25;;;;;;;5.80;1.50;;;;;;;-145.49;100.00;55703.94;2204962;26;20291;-65
2024/04/13 09:54:29;;;;;;;4.47;1.60;;;;;;;-145.49;100.00;55703.94;2204953;26;20567;-65
2024/04/13 09:55:33;;;;;;;6.72;1.95;;;;;;;-145.49;100.00;55703.94;2209244;26;20267;-63
2024/04/13 09:56:36;;;;;;;4.53;1.55;;;;;;;-145.49;100.00;55703.94;2206744;26;20299;-63
2024/04/13 09:57:38;;;;;;;8.65;1.50;;;;;;;-145.49;100.00;55703.94;2206232;26;20260;-63
2024/04/13 09:58:41;;;;;;;4.07;1.50;;;;;;;-145.49;100.00;55703.94;2211802;26;20205;-63
2024/04/13 09:59:45;;;;;;;10.98;1.90;;;;;;;-145.49;100.00;55703.94;2210159;26;20605;-63
2024/04/13 10:00:47;;;;;;;6.05;1.58;;;;;;;-145.49;100.00;55703.94;2207392;26;20875;-63
2024/04/13 10:01:49;;;;;;;4.05;1.60;;;;;;;-145.49;100.00;55703.94;2208086;26;20562;-63
2024/04/13 10:02:52;;;;;;;3.60;1.30;;;;;;;-145.49;100.00;55703.94;2211272;26;20641;-63
2024/04/13 10:03:53;;;;;;;4.78;1.48;;;;;;;-145.49;100.00;55703.94;2213099;26;20267;-63
2024/04/13 10:04:55;;;;;;;5.13;1.50;;;;;;;-145.49;100.00;55703.94;2208086;26;20220;-63
2024/04/13 10:06:00;;;;;;;5.22;1.33;;;;;;;-145.49;100.00;55703.94;2215062;26;20223;-63
2024/04/13 10:07:05;;;;;;;4.68;1.65;;;;;;;-145.49;100.00;55703.94;2207716;26;20611;-63
2024/04/13 10:08:08;;;;;;;10.00;1.67;;;;;;;-145.49;100.00;55703.94;2211042;26;20238;-63
2024/04/13 10:09:16;;;;;;;5.68;1.85;;;;;;;-145.49;100.00;55703.94;2212930;26;20347;-63
2024/04/13 10:10:18;;;;;;;5.20;1.63;;;;;;;-145.49;100.00;55703.94;2211491;26;20266;-63
2024/04/13 10:11:21;;;;;;;6.07;1.50;;;;;;;-145.49;100.00;55703.94;2205475;26;20248;-63
2024/04/13 10:12:29;;;;;;;7.63;1.75;;;;;;;-145.49;100.00;55703.94;2208285;26;20246;-63
2024/04/13 10:13:35;;;;;;;6.43;2.00;;;;;;;-145.49;100.00;55703.94;2211541;26;20218;-63
2024/04/13 10:14:41;;;;;;;9.65;1.42;;;;;;;-145.49;100.00;55703.94;2201434;26;20213;-63
2024/04/13 10:15:44;;;;;;;6.50;1.95;;;;;;;-145.49;100.00;55703.94;2198460;26;20558;-63
2024/04/13 10:16:47;;;;;;;4.70;1.52;;;;;;;-145.49;100.00;55703.94;2210576;26;20228;-63
2024/04/13 10:17:50;;;;;;;4.57;1.58;;;;;;;-145.49;100.00;55703.94;2210256;26;20255;-64
2024/04/13 10:18:51;;;;;;;5.22;1.60;;;;;;;-145.49;100.00;55703.94;2208418;26;20216;-63
2024/04/13 10:19:53;;;;;;;3.95;1.30;;;;;;;-145.49;100.00;55703.94;2197333;26;20221;-63
2024/04/13 10:21:02;;;;;;;3.85;1.60;;;;;;;-145.49;100.00;55703.94;2200273;26;20217;-64
2024/04/13 10:22:05;;;;;;;5.25;1.60;;;;;;;-145.49;100.00;55703.94;2212281;26;20619;-64
2024/04/13 10:23:19;;;;;;;5.40;1.30;;;;;;;-145.49;100.00;55703.94;2215676;26;20223;-63
2024/04/13 10:24:21;;;;;;;8.65;1.65;;;;;;;-145.49;100.00;55703.94;2215569;26;20215;-64
2024/04/13 10:25:27;;;;;;;3.08;1.42;;;;;;;-145.49;100.00;55703.94;2215371;26;20227;-64
2024/04/13 10:26:30;;;;;;;3.70;1.55;;;;;;;-145.49;100.00;55703.94;2203353;26;20558;-64
2024/04/13 10:27:33;;;;;;;8.65;2.25;;;;;;;-145.49;100.00;55703.94;2213517;26;20258;-63
2024/04/13 10:28:35;;;;;;;4.10;1.90;;;;;;;-145.49;100.00;55703.94;2210909;26;20253;-63
2024/04/13 10:29:40;;;;;;;9.63;1.58;;;;;;;-145.49;100.00;55703.94;2206392;26;20212;-63
2024/04/13 10:30:49;;;;;;;4.57;1.67;;;;;;;-145.49;100.00;55703.94;2217917;26;20296;-63
2024/04/13 10:31:53;;;;;;;5.63;1.58;;;;;;;-145.49;100.00;55703.94;2214389;26;20259;-63
2024/04/13 10:32:54;;;;;;;4.75;1.75;;;;;;;-145.49;100.00;55703.94;2211283;26;20223;-63
2024/04/13 10:33:56;;;;;;;4.47;1.33;;;;;;;-145.49;100.00;55703.94;2199791;26;20263;-63
2024/04/13 10:35:16;;;;;;;6.85;1.77;;;;;;;-145.49;100.00;55703.94;2195317;26;20302;-63
2024/04/13 10:36:31;;;;;;;7.60;1.98;;;;;;;-145.49;100.00;55703.94;2207956;26;20257;-64
2024/04/13 10:37:37;;;;;;;7.70;1.45;;;;;;;-145.49;100.00;55703.94;2204198;26;20264;-63
2024/04/13 10:38:39;;;;;;;6.88;1.63;;;;;;;-145.49;100.00;55703.94;2211513;26;20262;-64
2024/04/13 10:39:52;;;;;;;4.15;1.60;;;;;;;-145.49;100.00;55703.94;2213550;26;20263;-63
2024/04/13 10:40:54;;;;;;;4.70;1.45;;;;;;;-145.49;100.00;55703.94;2210953;26;20213;-63
2024/04/13 10:41:56;;;;;;;5.88;1.60;;;;;;;-145.49;100.00;55703.94;2212285;26;20678;-64
2024/04/13 10:43:03;;;;;;;9.27;1.60;;;;;;;-145.49;100.00;55703.94;2211105;26;20215;-64
2024/04/13 10:44:22;;;;;;;5.32;1.85;;;;;;;-145.49;100.00;55703.94;2206674;26;20715;-65
2024/04/13 10:45:25;;;;;;;3.47;1.55;;;;;;;-145.49;100.00;55703.94;2213402;26;20219;-65
2024/04/13 10:46:27;;;;;;;4.75;1.50;;;;;;;-145.49;100.00;55703.94;2199988;26;20332;-65
2024/04/13 10:47:30;;;;;;;4.00;1.73;;;;;;;-145.49;100.00;55703.94;2210135;26;20571;-65
2024/04/13 10:48:32;;;;;;;6.80;1.77;;;;;;;-145.49;100.00;55703.94;2206412;26;20265;-65
2024/04/13 10:49:35;;;;;;;3.83;1.60;;;;;;;-145.49;100.00;55703.94;2212551;26;20220;-65
2024/04/13 10:50:43;;;;;;;4.47;1.50;;;;;;;-145.49;100.00;55703.94;2208722;26;20257;-64
2024/04/13 10:51:46;;;;;;;5.63;2.00;;;;;;;-145.49;100.00;55703.94;2204528;26;20265;-64
2024/04/13 10:52:47;;;;;;;3.58;1.45;;;;;;;-145.49;100.00;55703.94;2205809;26;20345;-65
2024/04/13 10:53:49;;;;;;;7.80;2.13;;;;;;;-145.49;100.00;55703.94;2207880;26;20263;-66
2024/04/13 10:54:55;;;;;;;4.25;1.48;;;;;;;-145.49;100.00;55703.94;2210890;26;20216;-64
2024/04/13 10:56:00;;;;;;;8.52;1.45;;;;;;;-145.49;100.00;55703.94;2208781;26;20219;-65
2024/04/13 10:57:05;;;;;;;4.47;1.65;;;;;;;-145.49;100.00;55703.94;2208524;26;20468;-64
2024/04/13 10:58:17;;;;;;;4.78;1.63;;;;;;;-145.49;100.00;55703.94;2208397;26;20510;-65
2024/04/13 10:59:18;;;;;;;7.72;1.50;;;;;;;-145.49;100.00;55703.94;2207872;26;20254;-65
2024/04/13 11:00:20;;;;;;;4.30;1.60;;;;;;;-145.49;100.00;55703.94;2210484;26;20216;-66
2024/04/13 11:01:21;;;;;;;6.20;1.17;;;;;;;-145.49;100.00;55703.94;2210895;26;20571;-66
2024/04/13 11:02:23;;;;;;;2.63;1.25;;;;;;;-145.49;100.00;55703.94;2206033;26;20235;-66
2024/04/13 11:03:27;;;;;;;4.63;1.42;;;;;;;-145.49;100.00;55703.94;2209643;26;20295;-65
2024/04/13 11:04:29;;;;;;;3.92;1.35;;;;;;;-145.49;100.00;55703.94;2215901;26;20215;-66
2024/04/13 11:05:30;;;;;;;6.57;1.55;;;;;;;-145.49;100.00;55703.94;2214909;26;20218;-65
2024/04/13 11:06:32;;;;;;;2.47;1.25;;;;;;;-145.49;100.00;55703.94;2212014;26;20295;-66
2024/04/13 11:07:37;;;;;;;4.07;1.40;;;;;;;-145.49;100.00;55703.94;2206426;26;20255;-65
2024/04/13 11:08:38;;;;;;;3.38;1.55;;;;;;;-145.49;100.00;55703.94;2205765;26;20212;-65
2024/04/13 11:09:41;;;;;;;5.60;1.98;;;;;;;-145.49;100.00;55703.94;2213452;26;20264;-65
2024/04/13 11:10:43;;;;;;;5.05;1.65;;;;;;;-145.49;100.00;55703.94;2211208;26;20918;-65
2024/04/13 11:11:44;;;;;;;7.13;1.67;;;;;;;-145.49;100.00;55703.94;2212818;26;20232;-66
2024/04/13 11:12:48;;;;;;;4.30;1.08;;;;;;;-145.49;100.00;55703.94;2207800;26;20268;-65
2024/04/13 11:13:50;;;;;;;4.50;1.40;;;;;;;-145.49;100.00;55703.94;2212500;26;20654;-65
2024/04/13 11:14:51;;;;;;;6.10;1.10;;;;;;;-145.49;100.00;55703.94;2204858;26;20262;-65
2024/04/13 11:15:53;;;;;;;3.72;1.38;;;;;;;-145.49;100.00;55703.94;2211562;26;20266;-65
2024/04/13 11:16:55;;;;;;;5.80;1.10;;;;;;;-145.49;100.00;55703.94;2212930;26;20282;-66
2024/04/13 11:17:57;;;;;;;3.00;1.50;;;;;;;-145.49;100.00;55703.94;2206864;26;20270;-65
2024/04/13 11:18:59;;;;;;;9.98;1.83;;;;;;;-145.49;100.00;55703.94;2197215;26;20256;-65
2024/04/13 11:20:01;;;;;;;3.08;1.00;;;;;;;-145.49;100.00;55703.94;2199691;26;20221;-64
2024/04/13 11:21:05;;;;;;;4.88;1.20;;;;;;;-145.49;100.00;55703.94;2197851;26;20664;-65
2024/04/13 11:22:12;;;;;;;4.00;1.55;;;;;;;-145.49;100.00;55703.94;2197357;26;20211;-66
2024/04/13 11:23:19;;;;;;;4.88;1.02;;;;;;;-145.49;100.00;55703.94;2190425;26;20366;-65
2024/04/13 11:24:21;;;;;;;6.03;1.77;;;;;;;-145.49;100.00;55703.94;2218536;26;20630;-65
2024/04/13 11:25:26;;;;;;;7.82;1.58;;;;;;;-145.49;100.00;55703.94;2225217;26;20816;-65
2024/04/13 11:26:31;;;;;;;4.53;1.10;;;;;;;-145.49;100.00;55703.94;2207164;26;20243;-64
2024/04/13 11:27:32;;;;;;;6.68;1.65;;;;;;;-145.49;100.00;55703.94;2208638;26;20714;-65
2024/04/13 11:28:34;;;;;;;4.55;1.40;;;;;;;-145.49;100.00;55703.94;2209768;26;20784;-65
2024/04/13 11:29:36;;;;;;;5.30;1.40;;;;;;;-145.49;100.00;55703.94;2211333;26;20305;-65
2024/04/13 11:30:41;;;;;;;9.40;1.48;;;;;;;-145.49;100.00;55703.94;2206121;26;20234;-65
2024/04/13 11:31:44;;;;;;;4.22;1.30;;;;;;;-145.49;100.00;55703.94;2208561;26;20257;-67
2024/04/13 11:32:50;;;;;;;4.60;1.20;;;;;;;-145.49;100.00;55703.94;2206464;26;20258;-66
2024/04/13 11:33:51;;;;;;;5.53;1.45;;;;;;;-145.49;100.00;55703.94;2204132;26;20242;-67
2024/04/13 11:34:54;;;;;;;3.75;1.00;;;;;;;-145.49;100.00;55703.94;2212621;26;20222;-65
2024/04/13 11:35:56;;;;;;;8.07;1.38;;;;;;;-145.49;100.00;55703.94;2213055;26;20216;-65
2024/04/13 11:37:03;;;;;;;4.57;1.35;;;;;;;-145.49;100.00;55703.94;2208847;26;20235;-65
2024/04/13 11:38:05;;;;;;;2.85;1.30;;;;;;;-145.49;100.00;55703.94;2204923;26;20220;-65